Rockford, IL (61103)

4:42 PM CDT on July 03, 2015 (GMT -0500)
Midtown Rockford | | Change Station
CLOSE
Current Station
Personal Weather Station
Location: Rockford, IL
Elevation: 748 ft
Nearby Weather Stations

Elev 748 ft 42.26 °N, 89.08 °W | Updated 2 minutes ago

Partly Cloudy
Partly Cloudy
83.1 °F
Feels Like 83 °F
N
2.2
Wind Variable Wind from SW

Today
High -- | Low -- °F
--% Chance of Precip.
Yesterday
High -- | Low -- °F
Precip. -- in
5:24 AM 8:36 PM
Waning Gibbous, 96% visible
Pressure 29.94 in
Visibility 10.0 miles
Clouds Few 4800 ft
Scattered Clouds 25000 ft
Heat Index 83 °F
Dew Point 57 °F
Humidity 41%
Rainfall 0.00 in
Snow Depth Not available.
UV 6 out of 12
Pollen 4.20 out of 12
Air Quality Not available.
Flu Activity Not available.
METAR KRFD 032054Z 20005KT 10SM FEW048 SCT250 25/13 A2995 RMK AO2 SLP138 T02500128 57014

More Conditions Fewer Conditions

Pressure 29.94 in
Visibility 10.0 miles
Clouds Few 4800 ft
Scattered Clouds 25000 ft
Heat Index 83 °F
Dew Point 57 °F
Humidity 41%
Rainfall 0.00 in
Snow Depth Not available.
UV 6 out of 12
Pollen 4.20 out of 12
Air Quality Not available.
Flu Activity Not available.
METAR KRFD 032054Z 20005KT 10SM FEW048 SCT250 25/13 A2995 RMK AO2 SLP138 T02500128 57014

More Conditions Fewer Conditions

10-Day Weather Forecast

×

Almanac

Astronomy

Jul. 03, 2015 Rise Set
Actual Time
Civil Twilight
Nautical Twilight
Astronomical Twilight
Moon
Length of Visible Light
Length of Day
Tomorrow will be .
, % of the Moon is Illuminated

Today's Extremes

State Highs State Lows

Community

WunderPhotos

Upload Photos

1,834,782 photos uploaded!

WunderBlogs® & News

Nearby

Air Quality

  Air Quality AQ Index Pollutant
Not available.

Snow Depth

Station Depth Elevation

Earthquake Activity

City Distance Mag. Time & Date
Minimum magnitude displayed is 2.5.

Coastal Water Temperatures

Place Temperature

Stations

Nearby Weather Stations

Station Location Temp. Windchill Dew Point Humidity Wind Precip. Elev Updated Type